Weather at Tremp Heliport

Public forecast

Using degrees Celsius for public forecast. Weather courtesy of forecast.io.

Closest aviation weather report (METAR) to Tremp Heliport

Closest report is Pirineus - la Seu d'Urgel Airport, 25.1 nm (46.5 km) ENE. Retrieved 2020/10/23 11:30 UTC (0 seconds ago):

LESU 231130Z VRB02KT 9999 FEW010 SCT040 16/11 Q1019

Closest aviation forecast (TAF) to Tremp Heliport

Closest forecast is Pirineus - la Seu d'Urgel Airport, 25.1 nm (46.5 km) ENE. Retrieved 2020/10/23 09:00 UTC (2 hours ago):

TAF LESU 230800Z 2309/2409 VRB03KT 9999 FEW020 TX20/2313Z TN03/2405Z PROB40 TEMPO 2309/2311 0100 FG VV002 PROB40 TEMPO 2309/2314 4000 SHRA FEW040CB PROB30 2311/2314 4000 TSRA FEW040CB TEMPO 2311/2318 20010KT